createdAt,value
2018-12-16T00:01:39.213Z,28.63
2018-12-16T00:04:07.829Z,31.70
2018-12-16T00:06:36.422Z,28.20
2018-12-16T00:09:06.694Z,29.53
2018-12-16T00:11:35.321Z,30.53
2018-12-16T00:14:03.917Z,28.60
2018-12-16T00:16:32.513Z,27.80
2018-12-16T00:19:01.094Z,30.83
2018-12-16T00:21:29.719Z,28.47
2018-12-16T00:23:58.277Z,35.07
2018-12-16T00:26:36.889Z,31.77
2018-12-16T00:29:05.975Z,28.60
2018-12-16T00:31:34.789Z,29.23
2018-12-16T00:34:03.527Z,30.77
2018-12-16T00:36:32.105Z,32.87
2018-12-16T00:39:00.661Z,28.47
2018-12-16T00:41:29.234Z,28.67
2018-12-16T00:43:57.812Z,33.10
2018-12-16T00:46:26.365Z,33.57
2018-12-16T00:48:55.073Z,29.47
2018-12-16T00:51:23.750Z,31.37
2018-12-16T00:53:52.368Z,31.73
2018-12-16T00:56:20.989Z,27.77
2018-12-16T00:58:49.621Z,30.07
2018-12-16T01:01:18.251Z,29.80
2018-12-16T01:03:46.922Z,28.00
2018-12-16T01:06:15.645Z,28.93
2018-12-16T01:08:44.354Z,28.63
2018-12-16T01:11:12.989Z,27.33
2018-12-16T01:13:41.594Z,29.43
2018-12-16T01:16:10.194Z,26.83
2018-12-16T01:18:38.782Z,28.07
2018-12-16T01:21:07.538Z,32.83
2018-12-16T01:23:36.103Z,27.83
2018-12-16T01:26:04.751Z,30.83
2018-12-16T01:28:33.546Z,29.27
2018-12-16T01:31:02.142Z,28.47
2018-12-16T01:33:31.007Z,26.90
2018-12-16T01:35:59.608Z,27.23
2018-12-16T01:38:28.220Z,25.60
2018-12-16T01:40:56.919Z,29.07
2018-12-16T01:43:25.527Z,30.77
2018-12-16T01:45:54.150Z,29.53
2018-12-16T01:48:22.758Z,27.37
2018-12-16T01:50:51.399Z,26.43
2018-12-16T01:53:20.008Z,29.80
2018-12-16T01:55:48.636Z,25.23
2018-12-16T01:58:17.328Z,26.10
2018-12-16T02:00:45.978Z,26.77
2018-12-16T02:03:14.674Z,25.83
2018-12-16T02:05:43.318Z,24.87
2018-12-16T02:08:11.893Z,24.57
2018-12-16T02:10:40.492Z,26.70
2018-12-16T02:13:09.043Z,22.87
2018-12-16T02:15:37.769Z,25.13
2018-12-16T02:18:06.450Z,26.00
2018-12-16T02:20:35.088Z,26.80
2018-12-16T02:23:03.759Z,23.47
2018-12-16T02:25:32.355Z,23.70
2018-12-16T02:28:00.926Z,27.00
2018-12-16T02:30:29.518Z,24.70
2018-12-16T02:32:58.150Z,29.00
2018-12-16T02:35:26.744Z,23.17
2018-12-16T02:37:55.378Z,27.93
2018-12-16T02:40:23.996Z,24.43
2018-12-16T02:42:52.575Z,24.67
2018-12-16T02:45:21.183Z,26.20
2018-12-16T02:47:49.827Z,23.90
2018-12-16T02:50:18.412Z,22.50
2018-12-16T02:52:47.010Z,25.20
2018-12-16T02:55:15.628Z,27.00
2018-12-16T02:57:44.211Z,23.80
2018-12-16T03:00:12.962Z,25.70
2018-12-16T03:02:41.550Z,27.70
2018-12-16T03:05:10.123Z,26.90
2018-12-16T03:07:38.685Z,26.07
2018-12-16T03:10:07.515Z,25.27
2018-12-16T03:12:36.148Z,25.17
2018-12-16T03:15:05.351Z,25.13
2018-12-16T03:17:34.021Z,24.50
2018-12-16T03:20:02.692Z,24.30
2018-12-16T03:22:31.375Z,25.50
2018-12-16T03:24:59.940Z,25.87
2018-12-16T03:27:28.502Z,23.83
2018-12-16T03:29:57.145Z,23.50
2018-12-16T03:32:25.801Z,25.13
2018-12-16T03:34:54.463Z,25.63
2018-12-16T03:37:23.133Z,23.20
2018-12-16T03:39:51.779Z,22.33
2018-12-16T03:42:20.435Z,24.57
2018-12-16T03:44:49.057Z,24.57
2018-12-16T03:47:17.696Z,22.80
2018-12-16T03:49:46.355Z,21.87
2018-12-16T03:52:14.953Z,23.77
2018-12-16T03:54:43.552Z,20.50
2018-12-16T03:57:12.219Z,22.40
2018-12-16T03:59:40.868Z,20.97
2018-12-16T04:02:09.539Z,22.57
2018-12-16T04:04:38.160Z,21.37
2018-12-16T04:07:06.784Z,21.63
2018-12-16T04:09:35.440Z,22.03
2018-12-16T04:12:04.120Z,24.00
2018-12-16T04:14:32.742Z,26.07
2018-12-16T04:17:01.383Z,21.33
2018-12-16T04:19:30.015Z,20.60
2018-12-16T04:21:58.677Z,21.30
2018-12-16T04:24:27.292Z,22.37
2018-12-16T04:26:55.954Z,24.37
2018-12-16T04:29:24.599Z,22.37
2018-12-16T04:31:53.194Z,23.43
2018-12-16T04:34:21.827Z,25.77
2018-12-16T04:36:50.495Z,23.83
2018-12-16T04:39:19.139Z,22.93
2018-12-16T04:41:47.744Z,27.33
2018-12-16T04:44:16.400Z,22.23
2018-12-16T04:46:45.036Z,24.87
2018-12-16T04:49:13.691Z,22.57
2018-12-16T04:51:42.343Z,23.60
2018-12-16T04:54:10.949Z,23.47
2018-12-16T04:56:39.552Z,22.40
2018-12-16T04:59:08.163Z,26.27
2018-12-16T05:01:36.807Z,25.20
2018-12-16T05:04:05.438Z,25.57
2018-12-16T05:06:34.067Z,25.83
2018-12-16T05:09:03.577Z,24.53
2018-12-16T05:11:32.239Z,24.77
2018-12-16T05:14:00.863Z,23.73
2018-12-16T05:16:29.521Z,24.23
2018-12-16T05:18:58.272Z,19.30
2018-12-16T05:21:26.956Z,19.90
2018-12-16T05:23:55.567Z,21.03
2018-12-16T05:26:24.233Z,21.43
2018-12-16T05:28:52.843Z,22.23
2018-12-16T05:31:21.447Z,20.47
2018-12-16T05:33:50.060Z,21.87
2018-12-16T05:36:18.684Z,21.80
2018-12-16T05:38:47.288Z,22.00
2018-12-16T05:41:15.931Z,23.33
2018-12-16T05:43:44.551Z,24.43
2018-12-16T05:46:14.189Z,23.33
2018-12-16T05:48:42.839Z,19.80
2018-12-16T05:51:11.472Z,22.27
2018-12-16T05:53:40.076Z,19.77
2018-12-16T05:56:09.114Z,19.83
2018-12-16T05:58:37.728Z,18.63
2018-12-16T06:01:06.523Z,21.67
2018-12-16T06:03:35.146Z,18.70
2018-12-16T06:06:03.795Z,21.20
2018-12-16T06:08:32.447Z,21.40
2018-12-16T06:11:01.036Z,20.03
2018-12-16T06:13:29.688Z,20.50
2018-12-16T06:15:58.288Z,27.53
2018-12-16T06:18:26.916Z,20.07
2018-12-16T06:20:55.551Z,20.40
2018-12-16T06:23:24.324Z,20.93
2018-12-16T06:25:52.953Z,20.20
2018-12-16T06:28:21.566Z,21.83
2018-12-16T06:30:50.506Z,22.47
2018-12-16T06:33:19.127Z,21.50
2018-12-16T06:35:47.730Z,22.23
2018-12-16T06:38:16.363Z,20.27
2018-12-16T06:40:44.988Z,20.83
2018-12-16T06:43:13.667Z,19.87
2018-12-16T06:45:42.371Z,19.87
2018-12-16T06:48:10.993Z,19.87
2018-12-16T06:50:39.684Z,21.23
2018-12-16T06:53:08.295Z,22.77
2018-12-16T06:55:43.095Z,22.87
2018-12-16T06:58:07.528Z,19.60
2018-12-16T07:00:36.113Z,19.30
2018-12-16T07:03:04.709Z,21.90
2018-12-16T07:05:33.305Z,21.33
2018-12-16T07:08:01.891Z,21.00
2018-12-16T07:10:30.498Z,19.43
2018-12-16T07:12:59.061Z,20.13
2018-12-16T07:15:27.629Z,20.57
2018-12-16T07:17:56.222Z,19.27
2018-12-16T07:20:24.879Z,21.27
2018-12-16T07:22:53.530Z,20.87
2018-12-16T07:25:22.166Z,19.60
2018-12-16T07:27:50.805Z,19.87
2018-12-16T07:30:22.430Z,20.37
2018-12-16T07:32:51.045Z,32.90
2018-12-16T07:35:19.642Z,30.53
2018-12-16T07:37:48.343Z,21.07
2018-12-16T07:40:16.971Z,21.47
2018-12-16T07:42:45.536Z,19.17
2018-12-16T07:45:14.132Z,21.03
2018-12-16T07:47:42.737Z,19.20
2018-12-16T07:50:11.442Z,17.57
2018-12-16T07:52:40.063Z,19.50
2018-12-16T07:55:08.723Z,24.00
2018-12-16T07:57:37.328Z,22.70
2018-12-16T08:00:07.828Z,20.50
2018-12-16T08:02:36.459Z,19.33
2018-12-16T08:05:05.387Z,20.50
2018-12-16T08:07:34.033Z,23.37
2018-12-16T08:10:02.651Z,23.77
2018-12-16T08:12:31.268Z,24.90
2018-12-16T08:15:01.116Z,28.13
2018-12-16T08:17:29.763Z,28.43
2018-12-16T08:19:58.384Z,27.87
2018-12-16T08:22:27.003Z,28.43
2018-12-16T08:24:55.599Z,29.00
2018-12-16T08:27:24.218Z,25.97
2018-12-16T08:29:52.823Z,27.77
2018-12-16T08:32:21.567Z,28.00
2018-12-16T08:34:50.191Z,21.37
2018-12-16T08:37:18.807Z,19.80
2018-12-16T08:39:47.427Z,21.80
2018-12-16T08:42:16.035Z,19.90
2018-12-16T08:44:44.678Z,19.70
2018-12-16T08:47:13.291Z,28.27
2018-12-16T08:49:41.908Z,26.53
2018-12-16T08:52:10.508Z,20.00
2018-12-16T08:54:39.123Z,20.70
2018-12-16T08:57:07.755Z,17.83
2018-12-16T08:59:36.377Z,21.03
2018-12-16T09:02:05.176Z,23.47
2018-12-16T09:04:33.763Z,21.63
2018-12-16T09:07:02.380Z,20.07
2018-12-16T09:09:31.479Z,20.07
2018-12-16T09:12:00.134Z,21.93
2018-12-16T09:14:28.756Z,29.33
2018-12-16T09:16:57.352Z,28.77
2018-12-16T09:19:25.961Z,26.20
2018-12-16T09:21:54.584Z,28.87
2018-12-16T09:24:23.205Z,20.30
2018-12-16T09:26:51.840Z,20.60
2018-12-16T09:29:20.468Z,16.83
2018-12-16T09:31:49.085Z,19.97
2018-12-16T09:34:17.671Z,20.27
2018-12-16T09:36:46.299Z,17.27
2018-12-16T09:39:14.945Z,18.53
2018-12-16T09:41:43.575Z,24.60
2018-12-16T09:44:12.211Z,19.73
2018-12-16T09:46:40.842Z,29.77
2018-12-16T09:49:09.464Z,36.90
2018-12-16T09:51:38.104Z,35.93
2018-12-16T09:54:06.707Z,27.83
2018-12-16T09:56:35.355Z,23.97
2018-12-16T09:59:03.996Z,28.00
2018-12-16T10:01:32.604Z,31.27
2018-12-16T10:04:01.248Z,27.17
2018-12-16T10:06:29.895Z,28.10
2018-12-16T10:08:58.805Z,31.50
2018-12-16T10:11:27.463Z,30.53
2018-12-16T10:13:56.851Z,26.00
2018-12-16T10:16:25.468Z,22.40
2018-12-16T10:18:54.079Z,24.50
2018-12-16T10:21:22.731Z,25.03
2018-12-16T10:23:51.402Z,27.07
2018-12-16T10:26:20.127Z,23.23
2018-12-16T10:28:48.731Z,24.00
2018-12-16T10:31:17.347Z,20.40
2018-12-16T10:33:45.971Z,19.37
2018-12-16T10:36:14.607Z,18.23
2018-12-16T10:38:43.237Z,16.50
2018-12-16T10:41:11.858Z,18.53
2018-12-16T10:43:40.483Z,20.90
2018-12-16T10:46:09.119Z,17.00
2018-12-16T10:48:37.751Z,22.30
2018-12-16T10:51:06.387Z,24.27
2018-12-16T10:53:36.568Z,22.13
2018-12-16T10:56:05.395Z,25.47
2018-12-16T10:58:33.995Z,25.90
2018-12-16T11:01:08.095Z,20.23
2018-12-16T11:03:36.716Z,18.50
2018-12-16T11:06:05.352Z,19.80
2018-12-16T11:08:34.164Z,16.43
2018-12-16T11:11:02.834Z,18.07
2018-12-16T11:13:31.422Z,21.27
2018-12-16T11:16:00.015Z,22.03
2018-12-16T11:18:28.631Z,18.20
2018-12-16T11:20:57.263Z,19.20
2018-12-16T11:23:25.871Z,20.33
2018-12-16T11:25:55.803Z,21.20
2018-12-16T11:28:24.403Z,22.73
2018-12-16T11:30:53.054Z,17.07
2018-12-16T11:33:22.503Z,19.40
2018-12-16T11:35:52.282Z,18.90
2018-12-16T11:38:20.889Z,18.30
2018-12-16T11:40:49.507Z,19.40
2018-12-16T11:43:18.155Z,15.70
2018-12-16T11:45:46.792Z,16.63
2018-12-16T11:48:15.432Z,16.63
2018-12-16T11:50:44.055Z,17.70
2018-12-16T11:53:12.777Z,15.17
2018-12-16T11:55:41.644Z,15.57
2018-12-16T11:58:11.203Z,15.80
2018-12-16T12:00:39.847Z,16.77
2018-12-16T12:03:08.780Z,17.77
2018-12-16T12:05:43.785Z,16.47
2018-12-16T12:08:12.923Z,14.77
2018-12-16T12:10:42.855Z,14.70
2018-12-16T12:13:11.784Z,15.90
2018-12-16T12:15:40.386Z,13.43
2018-12-16T12:18:17.518Z,11.50
2018-12-16T12:20:46.868Z,12.53
2018-12-16T12:23:17.159Z,15.57
2018-12-16T12:25:46.948Z,26.80
2018-12-16T12:28:15.682Z,46.60
2018-12-16T12:30:44.312Z,57.67
2018-12-16T12:33:13.053Z,26.60
2018-12-16T12:35:42.558Z,23.37
2018-12-16T12:38:11.663Z,20.07
2018-12-16T12:40:40.313Z,17.70
2018-12-16T12:43:08.959Z,15.27
2018-12-16T12:45:37.573Z,14.30
2018-12-16T12:48:06.173Z,18.67
2018-12-16T12:50:34.787Z,15.37
2018-12-16T12:53:03.587Z,14.77
2018-12-16T12:55:32.221Z,16.37
2018-12-16T12:58:00.844Z,16.53
2018-12-16T13:00:29.470Z,18.30
2018-12-16T13:02:58.143Z,15.60
2018-12-16T13:05:26.747Z,15.93
2018-12-16T13:07:55.340Z,16.83
2018-12-16T13:10:23.996Z,14.93
2018-12-16T13:12:52.592Z,19.33
2018-12-16T13:15:21.200Z,18.80
2018-12-16T13:17:49.827Z,26.70
2018-12-16T13:20:18.448Z,28.27
2018-12-16T13:22:47.052Z,25.47
2018-12-16T13:25:26.463Z,29.60
2018-12-16T13:27:55.110Z,18.70
2018-12-16T13:30:23.755Z,18.43
2018-12-16T13:32:52.364Z,20.77
2018-12-16T13:35:20.975Z,16.33
2018-12-16T13:37:49.555Z,16.80
2018-12-16T13:40:18.195Z,15.37
2018-12-16T13:42:46.819Z,15.77
2018-12-16T13:45:15.483Z,15.87
2018-12-16T13:47:44.080Z,17.57
2018-12-16T13:50:12.959Z,16.83
2018-12-16T13:52:41.574Z,19.27
2018-12-16T13:55:10.239Z,19.10
2018-12-16T13:57:39.495Z,20.70
2018-12-16T14:00:08.716Z,21.77
2018-12-16T14:02:37.327Z,20.80
2018-12-16T14:05:06.479Z,18.83
2018-12-16T14:07:35.082Z,17.40
2018-12-16T14:10:03.899Z,16.77
2018-12-16T14:12:32.585Z,18.80
2018-12-16T14:15:01.295Z,19.30
2018-12-16T14:17:29.887Z,25.57
2018-12-16T14:19:59.536Z,19.13
2018-12-16T14:22:28.140Z,18.63
2018-12-16T14:24:56.752Z,17.83
2018-12-16T14:27:25.355Z,20.07
2018-12-16T14:29:53.947Z,18.87
2018-12-16T14:32:22.563Z,16.20
2018-12-16T14:34:51.176Z,16.37
2018-12-16T14:37:19.783Z,15.97
2018-12-16T14:39:48.418Z,16.37
2018-12-16T14:42:17.114Z,18.57
2018-12-16T14:44:45.711Z,16.83
2018-12-16T14:47:14.343Z,18.20
2018-12-16T14:49:42.963Z,19.10
2018-12-16T14:52:11.602Z,16.07
2018-12-16T14:54:40.187Z,15.17
2018-12-16T14:57:08.815Z,15.90
2018-12-16T14:59:37.419Z,15.87
2018-12-16T15:02:06.124Z,16.60
2018-12-16T15:04:34.736Z,17.03
2018-12-16T15:07:03.362Z,27.03
2018-12-16T15:09:31.990Z,19.50
2018-12-16T15:12:00.610Z,20.27
2018-12-16T15:14:29.227Z,17.13
2018-12-16T15:16:57.851Z,15.57
2018-12-16T15:19:26.478Z,17.63
2018-12-16T15:21:55.107Z,15.13
2018-12-16T15:24:24.328Z,15.67
2018-12-16T15:26:52.970Z,16.50
2018-12-16T15:29:21.643Z,17.00
2018-12-16T15:31:54.879Z,15.87
2018-12-16T15:34:25.801Z,18.23
2018-12-16T15:36:54.881Z,26.23
2018-12-16T15:39:25.713Z,19.97
2018-12-16T15:42:00.686Z,20.37
2018-12-16T15:44:29.319Z,19.90
2018-12-16T15:46:57.937Z,24.03
2018-12-16T15:49:26.599Z,19.33
2018-12-16T15:51:55.296Z,16.93
2018-12-16T15:54:23.952Z,17.43
2018-12-16T15:56:52.603Z,21.13
2018-12-16T15:59:22.184Z,18.47
2018-12-16T16:01:50.832Z,16.67
2018-12-16T16:04:19.469Z,18.90
2018-12-16T16:06:48.106Z,16.57
2018-12-16T16:09:17.375Z,18.27
2018-12-16T16:11:47.670Z,21.20
2018-12-16T16:14:17.860Z,18.47
2018-12-16T16:16:46.492Z,20.07
2018-12-16T16:19:16.335Z,17.23
2018-12-16T16:21:45.775Z,20.47
2018-12-16T16:24:15.603Z,23.03
2018-12-16T16:26:46.453Z,17.23
2018-12-16T16:29:16.634Z,15.87
2018-12-16T16:31:45.246Z,15.07
2018-12-16T16:34:13.912Z,18.60
2018-12-16T16:36:42.523Z,26.97
2018-12-16T16:39:11.141Z,20.67
2018-12-16T16:41:39.797Z,19.50
2018-12-16T16:44:08.479Z,21.77
2018-12-16T16:46:37.129Z,20.90
2018-12-16T16:49:05.752Z,18.07
2018-12-16T16:51:34.439Z,31.97
2018-12-16T16:54:03.098Z,20.20
2018-12-16T16:56:31.731Z,20.50
2018-12-16T16:59:00.381Z,39.03
2018-12-16T17:01:29.001Z,20.97
2018-12-16T17:03:57.615Z,25.87
2018-12-16T17:06:26.259Z,21.53
2018-12-16T17:08:54.875Z,22.07
2018-12-16T17:11:24.274Z,20.60
2018-12-16T17:13:53.578Z,23.70
2018-12-16T17:16:22.262Z,19.37
2018-12-16T17:18:51.589Z,18.10
2018-12-16T17:21:20.205Z,21.43
2018-12-16T17:23:48.817Z,35.43
2018-12-16T17:26:17.472Z,21.57
2018-12-16T17:28:46.176Z,24.17
2018-12-16T17:31:14.887Z,19.10
2018-12-16T17:33:43.523Z,18.90
2018-12-16T17:36:12.250Z,19.03
2018-12-16T17:38:40.855Z,17.63
2018-12-16T17:41:09.490Z,20.30
2018-12-16T17:43:38.091Z,19.80
2018-12-16T17:46:06.740Z,20.07
2018-12-16T17:48:35.351Z,19.87
2018-12-16T17:51:04.016Z,18.70
2018-12-16T17:53:32.625Z,19.50
2018-12-16T17:56:01.538Z,19.33
2018-12-16T17:58:30.416Z,25.17
2018-12-16T18:00:59.088Z,28.73
2018-12-16T18:03:27.699Z,40.63
2018-12-16T18:05:56.318Z,41.13
2018-12-16T18:08:24.940Z,40.70
2018-12-16T18:10:53.628Z,35.63
2018-12-16T18:13:22.267Z,36.43
2018-12-16T18:15:50.903Z,35.60
2018-12-16T18:18:19.532Z,32.77
2018-12-16T18:20:48.220Z,41.27
2018-12-16T18:23:16.904Z,30.87
2018-12-16T18:25:45.507Z,30.73
2018-12-16T18:28:14.144Z,29.23
2018-12-16T18:30:42.771Z,22.20
2018-12-16T18:33:11.582Z,24.83
2018-12-16T18:35:40.240Z,22.20
2018-12-16T18:38:08.872Z,22.20
2018-12-16T18:40:37.504Z,19.23
2018-12-16T18:43:06.139Z,21.77
2018-12-16T18:45:34.755Z,17.53
2018-12-16T18:48:03.407Z,18.87
2018-12-16T18:50:32.031Z,20.63
2018-12-16T18:53:00.665Z,18.83
2018-12-16T18:55:29.331Z,23.00
2018-12-16T18:57:57.981Z,22.40
2018-12-16T19:00:26.626Z,22.47
2018-12-16T19:02:55.251Z,24.67
2018-12-16T19:05:23.880Z,23.50
2018-12-16T19:07:52.501Z,20.97
2018-12-16T19:10:21.144Z,22.03
2018-12-16T19:12:49.802Z,19.90
2018-12-16T19:15:19.194Z,22.07
2018-12-16T19:17:47.827Z,19.87
2018-12-16T19:20:16.488Z,19.27
2018-12-16T19:22:45.287Z,22.77
2018-12-16T19:25:13.924Z,18.90
2018-12-16T19:27:42.564Z,20.63
2018-12-16T19:30:11.227Z,24.50
2018-12-16T19:32:41.146Z,28.00
2018-12-16T19:35:09.991Z,23.20
2018-12-16T19:37:38.638Z,31.47
2018-12-16T19:40:07.415Z,35.97
2018-12-16T19:42:36.039Z,35.47
2018-12-16T19:45:05.496Z,25.43
2018-12-16T19:47:34.142Z,23.93
2018-12-16T19:50:02.979Z,25.80
2018-12-16T19:52:31.620Z,32.90
2018-12-16T19:55:00.416Z,25.20
2018-12-16T19:57:29.032Z,25.10
2018-12-16T19:59:57.693Z,22.97
2018-12-16T20:02:26.309Z,20.50
2018-12-16T20:05:00.245Z,20.27
2018-12-16T20:07:28.904Z,18.90
2018-12-16T20:09:57.528Z,19.90
2018-12-16T20:12:26.168Z,22.10
2018-12-16T20:14:54.823Z,24.13
2018-12-16T20:17:23.497Z,23.73
2018-12-16T20:19:52.123Z,22.73
2018-12-16T20:22:20.745Z,20.07
2018-12-16T20:24:49.354Z,18.77
2018-12-16T20:27:17.970Z,20.10
2018-12-16T20:29:46.589Z,21.00
2018-12-16T20:32:15.219Z,16.43
2018-12-16T20:34:43.833Z,19.50
2018-12-16T20:37:12.491Z,19.40
2018-12-16T20:39:41.095Z,17.70
2018-12-16T20:42:09.727Z,17.00
2018-12-16T20:44:38.388Z,17.20
2018-12-16T20:47:07.059Z,22.33
2018-12-16T20:49:35.683Z,18.40
2018-12-16T20:52:04.338Z,15.77
2018-12-16T20:54:33.005Z,13.80
2018-12-16T20:57:01.673Z,16.97
2018-12-16T20:59:30.272Z,15.67
2018-12-16T21:01:58.899Z,19.20
2018-12-16T21:04:27.524Z,25.57
2018-12-16T21:06:56.179Z,31.47
2018-12-16T21:09:24.791Z,29.87
2018-12-16T21:11:58.921Z,26.17
2018-12-16T21:14:32.985Z,36.10
2018-12-16T21:17:06.967Z,41.67
2018-12-16T21:19:35.760Z,23.83
2018-12-16T21:22:09.311Z,30.03
2018-12-16T21:24:37.921Z,31.23
2018-12-16T21:27:06.669Z,34.87
2018-12-16T21:29:35.303Z,28.53
2018-12-16T21:32:03.942Z,29.83
2018-12-16T21:34:32.559Z,31.03
2018-12-16T21:37:01.191Z,26.27
2018-12-16T21:39:29.844Z,31.10
2018-12-16T21:41:58.529Z,28.47
2018-12-16T21:44:27.239Z,23.37
2018-12-16T21:46:55.869Z,32.80
2018-12-16T21:49:24.491Z,30.00
2018-12-16T21:51:53.314Z,24.97
2018-12-16T21:54:22.947Z,22.77
2018-12-16T21:56:51.664Z,26.63
2018-12-16T21:59:20.320Z,34.10
2018-12-16T22:01:48.963Z,21.83
2018-12-16T22:04:17.613Z,26.53
2018-12-16T22:06:46.240Z,27.60
2018-12-16T22:09:16.321Z,22.37
2018-12-16T22:11:44.992Z,18.93
2018-12-16T22:14:13.671Z,19.93
2018-12-16T22:16:42.343Z,18.70
2018-12-16T22:19:12.191Z,17.80
2018-12-16T22:21:41.287Z,24.83
2018-12-16T22:24:11.113Z,32.07
2018-12-16T22:26:40.447Z,25.90
2018-12-16T22:29:09.098Z,25.20
2018-12-16T22:31:37.741Z,22.80
2018-12-16T22:34:06.380Z,23.93
2018-12-16T22:36:35.076Z,23.30
2018-12-16T22:39:05.627Z,24.90
2018-12-16T22:41:34.324Z,25.80
2018-12-16T22:44:03.247Z,27.07
2018-12-16T22:46:32.141Z,27.73
2018-12-16T22:49:00.782Z,30.40
2018-12-16T22:51:29.462Z,26.87
2018-12-16T22:53:58.114Z,23.60
2018-12-16T22:56:26.755Z,21.97
2018-12-16T22:58:55.376Z,23.60
2018-12-16T23:01:24.126Z,21.43
2018-12-16T23:03:52.796Z,21.37
2018-12-16T23:06:21.432Z,25.77
2018-12-16T23:08:50.051Z,23.47
2018-12-16T23:11:18.669Z,25.87
2018-12-16T23:13:47.331Z,22.77
2018-12-16T23:16:15.952Z,19.20
2018-12-16T23:18:44.719Z,13.57
2018-12-16T23:21:13.576Z,19.07
2018-12-16T23:23:42.344Z,16.17
2018-12-16T23:26:11.013Z,9.97
2018-12-16T23:28:39.680Z,12.27
2018-12-16T23:31:08.329Z,7.43
2018-12-16T23:33:37.008Z,7.73
2018-12-16T23:36:05.660Z,4.57
2018-12-16T23:38:34.288Z,1.50
2018-12-16T23:41:02.956Z,1.50
2018-12-16T23:43:31.565Z,1.60
2018-12-16T23:46:00.202Z,1.67
2018-12-16T23:48:28.848Z,3.13
2018-12-16T23:50:57.477Z,3.87
2018-12-16T23:53:26.079Z,2.00
2018-12-16T23:55:54.693Z,4.17
2018-12-16T23:58:23.306Z,4.43
